Terminal Aerodrome Forecast
Issued by NWS

Home | Current Version | Previous Version | Text Only | Print | Product List | Glossary On
Versions: 1 2 3 4 5 6 7 8 9 10 11 12 13 14 15 16 17 18 19 20
000
FTUS46 KSEW 222300 RRA
TAFPAE
TAF
KPAE 222356Z 2300/2324 15005KT P6SM VCSH SCT015 BKN035
     FM230400 16010KT P6SM SCT015 SCT030
     FM230900 18015G25KT P6SM -SHRA BKN012 OVC040
      TEMPO 2312/2316 5SM -SHRA BR OVC012
     FM231900 34005KT P6SM VCSH BKN030=

USA.gov is the U.S. government's official web portal to all federal, state and local government web resources and services.